createdAt,value
2019-04-06T00:02:36.813Z,74.35
2019-04-06T00:05:43.192Z,73.99
2019-04-06T00:08:49.621Z,73.79
2019-04-06T00:11:56.057Z,73.56
2019-04-06T00:15:02.691Z,74.17
2019-04-06T00:18:09.030Z,73.94
2019-04-06T00:21:16.586Z,74.52
2019-04-06T00:24:22.888Z,74.33
2019-04-06T00:27:29.364Z,74.21
2019-04-06T00:30:56.056Z,74.37
2019-04-06T00:34:03.234Z,74.71
2019-04-06T00:37:09.549Z,74.53
2019-04-06T00:40:16.374Z,75.43
2019-04-06T00:43:22.778Z,74.40
2019-04-06T00:46:30.266Z,74.49
2019-04-06T00:49:36.524Z,74.67
2019-04-06T00:52:42.929Z,74.70
2019-04-06T00:55:55.545Z,74.55
2019-04-06T00:58:58.472Z,74.27
2019-04-06T01:02:05.623Z,74.70
2019-04-06T01:05:12.353Z,74.28
2019-04-06T01:08:18.752Z,74.08
2019-04-06T01:11:26.391Z,73.87
2019-04-06T01:14:32.755Z,73.62
2019-04-06T01:17:39.123Z,74.35
2019-04-06T01:20:45.475Z,74.29
2019-04-06T01:23:51.872Z,74.62
2019-04-06T01:26:58.399Z,73.99
2019-04-06T01:30:06.141Z,74.01
2019-04-06T01:33:12.555Z,73.38
2019-04-06T01:36:19.006Z,73.73
2019-04-06T01:39:25.768Z,74.53
2019-04-06T01:42:32.029Z,74.02
2019-04-06T01:45:38.506Z,75.31
2019-04-06T01:48:45.671Z,74.93
2019-04-06T01:51:51.943Z,75.61
2019-04-06T01:54:59.232Z,74.97
2019-04-06T01:58:05.668Z,75.68
2019-04-06T02:01:18.345Z,76.03
2019-04-06T02:04:24.720Z,76.05
2019-04-06T02:07:31.458Z,76.43
2019-04-06T02:10:37.752Z,76.21
2019-04-06T02:13:44.342Z,75.79
2019-04-06T02:16:50.763Z,76.30
2019-04-06T02:19:57.129Z,76.06
2019-04-06T02:23:03.529Z,74.55
2019-04-06T02:26:10.106Z,76.49
2019-04-06T02:29:16.534Z,75.69
2019-04-06T02:32:31.203Z,76.06
2019-04-06T02:35:46.180Z,75.40
2019-04-06T02:38:57.327Z,76.91
2019-04-06T02:42:14.474Z,76.42
2019-04-06T02:45:22.345Z,76.55
2019-04-06T02:48:28.601Z,76.31
2019-04-06T02:51:35.794Z,75.38
2019-04-06T02:54:42.174Z,75.75
2019-04-06T02:57:48.934Z,75.77
2019-04-06T03:00:55.357Z,75.55
2019-04-06T03:04:02.547Z,76.41
2019-04-06T03:07:08.989Z,75.22
2019-04-06T03:10:15.606Z,74.87
2019-04-06T03:13:21.923Z,75.83
2019-04-06T03:16:28.382Z,76.94
2019-04-06T03:19:35.079Z,75.37
2019-04-06T03:22:41.540Z,75.82
2019-04-06T03:25:47.904Z,75.74
2019-04-06T03:28:55.767Z,76.12
2019-04-06T03:32:02.396Z,76.53
2019-04-06T03:35:08.876Z,77.00
2019-04-06T03:38:15.230Z,76.22
2019-04-06T03:41:22.088Z,76.61
2019-04-06T03:44:28.590Z,76.52
2019-04-06T03:47:35.170Z,77.08
2019-04-06T03:50:41.459Z,77.33
2019-04-06T03:53:47.919Z,77.62
2019-04-06T03:56:54.301Z,76.02
2019-04-06T04:00:00.914Z,75.69
2019-04-06T04:03:07.398Z,76.50
2019-04-06T04:06:14.968Z,76.92
2019-04-06T04:09:22.401Z,76.89
2019-04-06T04:12:28.692Z,77.07
2019-04-06T04:15:35.053Z,76.61
2019-04-06T04:18:41.779Z,76.37
2019-04-06T04:21:48.346Z,76.79
2019-04-06T04:24:54.928Z,76.33
2019-04-06T04:28:01.237Z,75.68
2019-04-06T04:31:07.695Z,76.07
2019-04-06T04:34:13.968Z,76.54
2019-04-06T04:37:20.443Z,76.71
2019-04-06T04:40:27.033Z,75.89
2019-04-06T04:43:33.732Z,75.28
2019-04-06T04:46:40.141Z,75.31
2019-04-06T04:49:47.494Z,75.67
2019-04-06T04:52:53.862Z,76.64
2019-04-06T04:56:01.212Z,76.17
2019-04-06T04:59:07.886Z,74.70
2019-04-06T05:02:14.298Z,75.02
2019-04-06T05:05:20.645Z,74.48
2019-04-06T05:08:27.235Z,75.00
2019-04-06T05:11:33.717Z,75.48
2019-04-06T05:14:59.811Z,75.10
2019-04-06T05:18:06.151Z,74.25
2019-04-06T05:21:13.303Z,74.71
2019-04-06T05:24:19.841Z,74.66
2019-04-06T05:27:26.234Z,75.46
2019-04-06T05:30:32.680Z,75.22
2019-04-06T05:33:39.418Z,74.87
2019-04-06T05:36:45.774Z,74.70
2019-04-06T05:39:52.214Z,75.55
2019-04-06T05:42:58.556Z,75.13
2019-04-06T05:46:05.102Z,75.11
2019-04-06T05:49:11.524Z,74.55
2019-04-06T05:52:17.962Z,74.49
2019-04-06T05:55:24.795Z,73.54
2019-04-06T05:58:32.182Z,73.54
2019-04-06T06:01:40.445Z,73.40
2019-04-06T06:04:46.593Z,73.19
2019-04-06T06:07:53.003Z,73.21
2019-04-06T06:11:00.469Z,72.85
2019-04-06T06:14:07.087Z,72.70
2019-04-06T06:17:14.431Z,71.64
2019-04-06T06:20:20.933Z,71.67
2019-04-06T06:23:27.527Z,71.51
2019-04-06T06:26:34.055Z,70.76
2019-04-06T06:29:40.658Z,70.50
2019-04-06T06:32:47.003Z,69.55
2019-04-06T06:35:53.743Z,68.89
2019-04-06T06:39:00.150Z,68.91
2019-04-06T06:42:06.505Z,68.20
2019-04-06T06:45:12.845Z,67.66
2019-04-06T06:48:19.306Z,66.48
2019-04-06T06:51:27.038Z,64.99
2019-04-06T06:54:33.502Z,64.84
2019-04-06T06:57:39.860Z,64.51
2019-04-06T07:00:47.311Z,63.80
2019-04-06T07:03:53.585Z,63.29
2019-04-06T07:06:59.994Z,61.75
2019-04-06T07:10:06.806Z,61.00
2019-04-06T07:13:13.245Z,58.88
2019-04-06T07:16:19.514Z,58.70
2019-04-06T07:19:26.159Z,57.30
2019-04-06T07:22:32.554Z,55.04
2019-04-06T07:25:39.017Z,55.13
2019-04-06T07:28:45.826Z,54.79
2019-04-06T07:31:52.346Z,53.17
2019-04-06T07:34:58.692Z,52.50
2019-04-06T07:38:05.304Z,51.54
2019-04-06T07:41:11.930Z,50.52
2019-04-06T07:44:18.305Z,49.46
2019-04-06T07:47:24.645Z,48.12
2019-04-06T07:50:31.186Z,48.66
2019-04-06T07:53:37.614Z,48.80
2019-04-06T07:56:44.072Z,48.28
2019-04-06T07:59:50.409Z,46.42
2019-04-06T08:02:58.787Z,45.04
2019-04-06T08:06:05.173Z,44.23
2019-04-06T08:09:11.662Z,42.47
2019-04-06T08:12:18.023Z,42.64
2019-04-06T08:15:24.536Z,41.32
2019-04-06T08:18:30.926Z,40.38
2019-04-06T08:21:37.372Z,39.97
2019-04-06T08:24:44.736Z,39.58
2019-04-06T08:27:51.773Z,37.54
2019-04-06T08:30:58.351Z,36.46
2019-04-06T08:34:04.745Z,36.21
2019-04-06T08:37:11.170Z,34.51
2019-04-06T08:40:17.994Z,34.50
2019-04-06T08:43:24.458Z,33.73
2019-04-06T08:46:30.982Z,33.48
2019-04-06T08:49:37.285Z,32.91
2019-04-06T08:52:44.725Z,31.30
2019-04-06T08:55:51.148Z,30.71
2019-04-06T08:58:57.542Z,30.74
2019-04-06T09:02:08.785Z,29.85
2019-04-06T09:05:23.825Z,29.57
2019-04-06T09:08:41.746Z,28.55
2019-04-06T09:12:04.328Z,28.33
2019-04-06T09:15:14.631Z,28.47
2019-04-06T09:18:25.437Z,29.15
2019-04-06T09:21:34.739Z,29.55
2019-04-06T09:24:43.160Z,29.20
2019-04-06T09:27:51.129Z,28.32
2019-04-06T09:30:57.576Z,27.74
2019-04-06T09:34:04.439Z,26.30
2019-04-06T09:37:11.993Z,25.93
2019-04-06T09:40:27.668Z,26.13
2019-04-06T09:43:35.905Z,26.18
2019-04-06T09:47:06.335Z,25.98
2019-04-06T09:50:27.681Z,26.06
2019-04-06T09:54:06.437Z,25.32
2019-04-06T09:57:30.472Z,24.98
2019-04-06T10:01:13.926Z,24.94
2019-04-06T10:04:34.610Z,24.76
2019-04-06T10:07:59.210Z,23.84
2019-04-06T10:11:24.794Z,23.77
2019-04-06T10:14:51.326Z,23.52
2019-04-06T10:18:08.265Z,23.52
2019-04-06T10:21:37.796Z,23.25
2019-04-06T10:24:56.258Z,22.80
2019-04-06T10:28:23.598Z,22.27
2019-04-06T10:31:47.654Z,22.67
2019-04-06T10:35:06.033Z,22.48
2019-04-06T10:38:31.834Z,22.52
2019-04-06T10:41:49.377Z,22.43
2019-04-06T10:45:15.377Z,21.56
2019-04-06T10:48:41.511Z,21.43
2019-04-06T10:52:07.079Z,21.43
2019-04-06T10:55:36.160Z,21.57
2019-04-06T10:58:53.256Z,21.15
2019-04-06T11:02:31.087Z,20.95
2019-04-06T11:06:08.879Z,20.72
2019-04-06T11:09:34.840Z,20.93
2019-04-06T11:16:27.231Z,20.70
2019-04-06T11:20:01.902Z,20.54
2019-04-06T11:23:25.903Z,19.93
2019-04-06T11:27:00.837Z,18.83
2019-04-06T11:32:15.788Z,19.62
2019-04-06T11:35:52.300Z,19.15
2019-04-06T11:39:26.775Z,19.29
2019-04-06T11:42:52.207Z,20.17
2019-04-06T11:46:10.376Z,20.38
2019-04-06T11:49:34.285Z,19.54
2019-04-06T11:53:15.133Z,18.89
2019-04-06T11:56:39.470Z,19.37
2019-04-06T12:00:07.629Z,19.35
2019-04-06T12:03:29.572Z,19.11
2019-04-06T12:06:53.267Z,18.75
2019-04-06T12:10:11.611Z,18.66
2019-04-06T12:13:24.560Z,20.51
2019-04-06T12:16:40.314Z,19.76
2019-04-06T12:20:21.139Z,21.23
2019-04-06T12:23:47.048Z,21.28
2019-04-06T12:27:15.697Z,20.03
2019-04-06T12:30:37.700Z,19.36
2019-04-06T12:34:09.979Z,18.90
2019-04-06T12:37:41.807Z,19.06
2019-04-06T12:40:58.870Z,20.12
2019-04-06T12:44:30.698Z,19.55
2019-04-06T12:47:48.323Z,19.89
2019-04-06T12:51:10.676Z,19.17
2019-04-06T12:54:34.981Z,19.54
2019-04-06T12:58:03.347Z,19.27
2019-04-06T13:01:28.896Z,19.73
2019-04-06T13:04:51.196Z,19.67
2019-04-06T13:08:06.854Z,19.74
2019-04-06T13:11:38.262Z,19.68
2019-04-06T13:14:59.416Z,20.42
2019-04-06T13:18:11.428Z,20.06
2019-04-06T13:21:36.035Z,21.20
2019-04-06T13:25:04.408Z,21.88
2019-04-06T13:28:35.919Z,22.12
2019-04-06T13:32:00.217Z,21.51
2019-04-06T13:35:21.209Z,21.67
2019-04-06T13:38:54.486Z,21.77
2019-04-06T13:42:33.656Z,20.88
2019-04-06T13:45:52.989Z,21.37
2019-04-06T13:49:09.261Z,22.36
2019-04-06T13:52:23.885Z,22.97
2019-04-06T13:56:04.579Z,23.61
2019-04-06T13:59:20.297Z,23.76
2019-04-06T14:02:54.934Z,23.33
2019-04-06T14:06:35.835Z,23.46
2019-04-06T14:10:04.528Z,23.24
2019-04-06T14:13:29.240Z,23.76
2019-04-06T14:16:43.585Z,23.76
2019-04-06T14:20:08.042Z,23.82
2019-04-06T14:23:22.645Z,23.97
2019-04-06T14:26:46.618Z,24.26
2019-04-06T14:30:30.327Z,24.25
2019-04-06T14:34:07.783Z,24.19
2019-04-06T14:37:21.734Z,24.80
2019-04-06T14:40:38.408Z,25.39
2019-04-06T14:44:06.852Z,25.75
2019-04-06T14:47:47.575Z,25.81
2019-04-06T14:51:04.031Z,26.04
2019-04-06T14:54:29.443Z,26.96
2019-04-06T14:57:53.959Z,27.00
2019-04-06T15:01:19.469Z,27.47
2019-04-06T15:04:51.239Z,27.99
2019-04-06T15:08:28.695Z,28.64
2019-04-06T15:11:47.716Z,29.31
2019-04-06T15:15:02.292Z,29.57
2019-04-06T15:18:33.501Z,29.76
2019-04-06T15:21:49.179Z,29.50
2019-04-06T15:25:05.104Z,29.50
2019-04-06T15:28:39.739Z,30.57
2019-04-06T15:32:10.210Z,31.41
2019-04-06T15:35:36.248Z,31.51
2019-04-06T15:39:04.897Z,31.80
2019-04-06T15:42:18.654Z,31.83
2019-04-06T15:45:43.321Z,32.64
2019-04-06T15:49:24.463Z,32.68
2019-04-06T15:52:53.280Z,33.94
2019-04-06T15:56:09.398Z,33.94
2019-04-06T15:59:35.146Z,35.02
2019-04-06T16:02:52.670Z,35.26
2019-04-06T16:06:04.971Z,35.29
2019-04-06T16:09:26.304Z,35.47
2019-04-06T16:12:44.433Z,35.90
2019-04-06T16:16:13.599Z,35.93
2019-04-06T16:19:36.049Z,35.40
2019-04-06T16:23:01.525Z,36.02
2019-04-06T16:26:21.420Z,36.62
2019-04-06T16:29:47.140Z,36.37
2019-04-06T16:33:01.822Z,36.70
2019-04-06T16:36:24.819Z,37.03
2019-04-06T16:39:50.322Z,37.60
2019-04-06T16:43:28.086Z,37.77
2019-04-06T16:46:48.682Z,38.94
2019-04-06T16:50:26.531Z,38.57
2019-04-06T16:53:44.993Z,38.46
2019-04-06T16:57:15.552Z,38.96
2019-04-06T17:00:30.677Z,39.87
2019-04-06T17:03:52.841Z,40.08
2019-04-06T17:07:17.844Z,39.59
2019-04-06T17:10:34.394Z,41.23
2019-04-06T17:14:08.525Z,40.92
2019-04-06T17:17:22.552Z,40.54
2019-04-06T17:20:35.048Z,41.08
2019-04-06T17:23:51.529Z,41.32
2019-04-06T17:27:08.636Z,41.44
2019-04-06T17:30:27.049Z,42.07
2019-04-06T17:33:49.943Z,42.04
2019-04-06T17:37:03.024Z,41.99
2019-04-06T17:40:15.483Z,42.65
2019-04-06T17:43:47.609Z,42.80
2019-04-06T17:47:16.218Z,43.44
2019-04-06T17:50:43.454Z,43.61
2019-04-06T17:54:08.177Z,43.57
2019-04-06T17:57:39.406Z,43.95
2019-04-06T18:00:51.938Z,44.17
2019-04-06T18:04:11.582Z,44.46
2019-04-06T18:07:49.021Z,43.97
2019-04-06T18:11:20.540Z,44.09
2019-04-06T18:14:27.117Z,44.48
2019-04-06T18:17:34.895Z,45.27
2019-04-06T18:20:41.454Z,44.41
2019-04-06T18:23:48.703Z,45.09
2019-04-06T18:26:55.112Z,45.83
2019-04-06T18:30:01.711Z,46.13
2019-04-06T18:33:16.197Z,45.90
2019-04-06T18:36:25.435Z,46.43
2019-04-06T18:39:32.475Z,45.63
2019-04-06T18:42:38.987Z,46.24
2019-04-06T18:45:45.813Z,47.22
2019-04-06T18:48:52.285Z,46.58
2019-04-06T18:51:58.760Z,47.29
2019-04-06T18:55:05.509Z,46.75
2019-04-06T18:58:13.669Z,46.28
2019-04-06T19:01:20.408Z,46.58
2019-04-06T19:04:27.385Z,46.69
2019-04-06T19:07:33.904Z,47.35
2019-04-06T19:10:40.460Z,47.53
2019-04-06T19:13:47.080Z,47.98
2019-04-06T19:16:53.460Z,47.54
2019-04-06T19:20:01.298Z,47.64
2019-04-06T19:23:09.355Z,47.52
2019-04-06T19:26:15.773Z,47.13
2019-04-06T19:29:22.623Z,46.93
2019-04-06T19:32:29.315Z,47.20
2019-04-06T19:35:35.659Z,48.23
2019-04-06T19:38:42.960Z,48.13
2019-04-06T19:41:49.534Z,48.23
2019-04-06T19:44:56.142Z,48.30
2019-04-06T19:48:03.019Z,48.28
2019-04-06T19:51:09.470Z,48.68
2019-04-06T19:54:16.450Z,48.93
2019-04-06T19:57:22.969Z,50.66
2019-04-06T20:00:30.081Z,50.22
2019-04-06T20:03:38.983Z,49.56
2019-04-06T20:06:44.635Z,49.66
2019-04-06T20:09:51.169Z,50.07
2019-04-06T20:12:57.613Z,50.36
2019-04-06T20:16:04.634Z,49.63
2019-04-06T20:19:11.272Z,49.58
2019-04-06T20:22:18.544Z,49.85
2019-04-06T20:25:25.269Z,51.21
2019-04-06T20:28:32.068Z,50.58
2019-04-06T20:31:38.744Z,50.14
2019-04-06T20:34:45.265Z,49.96
2019-04-06T20:37:52.717Z,50.88
2019-04-06T20:40:59.378Z,51.00
2019-04-06T20:44:09.195Z,51.06
2019-04-06T20:47:16.851Z,51.14
2019-04-06T20:50:23.518Z,52.00
2019-04-06T20:53:31.754Z,52.98
2019-04-06T20:56:53.315Z,52.16
2019-04-06T20:59:50.194Z,52.48
2019-04-06T21:02:58.944Z,52.37
2019-04-06T21:06:05.404Z,52.41
2019-04-06T21:09:14.124Z,52.52
2019-04-06T21:12:20.969Z,53.13
2019-04-06T21:15:28.547Z,53.21
2019-04-06T21:18:35.030Z,53.60
2019-04-06T21:21:41.435Z,53.89
2019-04-06T21:24:49.268Z,53.77
2019-04-06T21:27:55.967Z,53.74
2019-04-06T21:31:02.398Z,54.03
2019-04-06T21:34:11.972Z,54.08
2019-04-06T21:37:17.047Z,54.04
2019-04-06T21:40:23.537Z,53.77
2019-04-06T21:43:31.447Z,54.23
2019-04-06T21:46:38.086Z,54.49
2019-04-06T21:49:44.651Z,54.39
2019-04-06T21:52:51.132Z,54.40
2019-04-06T21:56:03.916Z,54.80
2019-04-06T21:59:06.428Z,54.75
2019-04-06T22:02:12.972Z,54.96
2019-04-06T22:05:19.413Z,55.09
2019-04-06T22:08:25.922Z,55.72
2019-04-06T22:11:33.206Z,55.26
2019-04-06T22:14:39.747Z,55.68
2019-04-06T22:17:46.690Z,55.79
2019-04-06T22:20:53.082Z,55.54
2019-04-06T22:24:00.238Z,55.67
2019-04-06T22:27:07.465Z,56.41
2019-04-06T22:30:14.101Z,56.74
2019-04-06T22:33:20.807Z,56.74
2019-04-06T22:36:27.694Z,57.18
2019-04-06T22:39:35.262Z,56.70
2019-04-06T22:42:42.238Z,57.86
2019-04-06T22:45:48.715Z,57.34
2019-04-06T22:48:55.429Z,57.30
2019-04-06T22:52:02.272Z,57.71
2019-04-06T22:55:09.575Z,58.22
2019-04-06T22:58:16.506Z,58.46
2019-04-06T23:01:24.135Z,59.29
2019-04-06T23:04:50.959Z,59.34
2019-04-06T23:07:56.630Z,59.56
2019-04-06T23:11:03.506Z,59.75
2019-04-06T23:14:10.119Z,59.72
2019-04-06T23:17:16.971Z,60.15
2019-04-06T23:20:24.360Z,60.36
2019-04-06T23:23:30.662Z,60.62
2019-04-06T23:26:37.207Z,60.79
2019-04-06T23:29:44.264Z,60.81
2019-04-06T23:32:50.725Z,60.84
2019-04-06T23:35:57.255Z,61.59
2019-04-06T23:39:05.767Z,61.41
2019-04-06T23:42:12.433Z,61.49
2019-04-06T23:45:18.842Z,61.45
2019-04-06T23:48:25.820Z,61.55
2019-04-06T23:51:32.504Z,61.74
2019-04-06T23:54:39.909Z,61.75
2019-04-06T23:57:46.777Z,61.61
